sensor_id;sensor_type;location;lat;lon;timestamp;P1;durP1;ratioP1;P2;durP2;ratioP2
2706;SDS011;7819;48.046;7.642;2023-02-28T00:00:22;3.40;;;3.10;;
2706;SDS011;7819;48.046;7.642;2023-02-28T00:02:47;5.20;;;3.37;;
2706;SDS011;7819;48.046;7.642;2023-02-28T00:05:13;3.67;;;3.20;;
2706;SDS011;7819;48.046;7.642;2023-02-28T00:07:39;2.87;;;2.57;;
2706;SDS011;7819;48.046;7.642;2023-02-28T00:10:06;3.33;;;2.70;;
2706;SDS011;7819;48.046;7.642;2023-02-28T00:12:32;4.20;;;2.97;;
2706;SDS011;7819;48.046;7.642;2023-02-28T00:14:57;2.60;;;2.40;;
2706;SDS011;7819;48.046;7.642;2023-02-28T00:17:22;3.73;;;2.93;;
2706;SDS011;7819;48.046;7.642;2023-02-28T00:19:48;2.73;;;2.53;;
2706;SDS011;7819;48.046;7.642;2023-02-28T00:22:14;3.80;;;2.97;;
2706;SDS011;7819;48.046;7.642;2023-02-28T00:24:39;3.47;;;2.90;;
2706;SDS011;7819;48.046;7.642;2023-02-28T00:27:04;3.63;;;3.07;;
2706;SDS011;7819;48.046;7.642;2023-02-28T00:29:30;2.63;;;2.43;;
2706;SDS011;7819;48.046;7.642;2023-02-28T00:31:55;2.70;;;2.50;;
2706;SDS011;7819;48.046;7.642;2023-02-28T00:34:20;4.53;;;2.90;;
2706;SDS011;7819;48.046;7.642;2023-02-28T00:36:45;2.97;;;2.57;;
2706;SDS011;7819;48.046;7.642;2023-02-28T00:39:13;3.63;;;2.77;;
2706;SDS011;7819;48.046;7.642;2023-02-28T00:41:39;3.30;;;3.10;;
2706;SDS011;7819;48.046;7.642;2023-02-28T00:44:04;4.40;;;3.50;;
2706;SDS011;7819;48.046;7.642;2023-02-28T00:46:29;3.90;;;3.53;;
2706;SDS011;7819;48.046;7.642;2023-02-28T00:48:54;3.40;;;3.10;;
2706;SDS011;7819;48.046;7.642;2023-02-28T00:51:19;3.73;;;3.20;;
2706;SDS011;7819;48.046;7.642;2023-02-28T00:53:45;3.43;;;3.13;;
2706;SDS011;7819;48.046;7.642;2023-02-28T00:56:10;3.07;;;2.77;;
2706;SDS011;7819;48.046;7.642;2023-02-28T00:58:35;4.80;;;3.00;;
2706;SDS011;7819;48.046;7.642;2023-02-28T01:01:00;3.50;;;3.20;;
2706;SDS011;7819;48.046;7.642;2023-02-28T01:03:25;5.83;;;3.80;;
2706;SDS011;7819;48.046;7.642;2023-02-28T01:05:51;4.23;;;3.83;;
2706;SDS011;7819;48.046;7.642;2023-02-28T01:08:18;4.97;;;3.43;;
2706;SDS011;7819;48.046;7.642;2023-02-28T01:10:43;5.07;;;4.03;;
2706;SDS011;7819;48.046;7.642;2023-02-28T01:13:08;3.80;;;3.30;;
2706;SDS011;7819;48.046;7.642;2023-02-28T01:15:34;3.93;;;3.10;;
2706;SDS011;7819;48.046;7.642;2023-02-28T01:17:59;3.40;;;3.10;;
2706;SDS011;7819;48.046;7.642;2023-02-28T01:20:24;4.27;;;3.40;;
2706;SDS011;7819;48.046;7.642;2023-02-28T01:22:49;3.30;;;2.93;;
2706;SDS011;7819;48.046;7.642;2023-02-28T01:25:14;5.40;;;2.77;;
2706;SDS011;7819;48.046;7.642;2023-02-28T01:27:40;3.17;;;2.87;;
2706;SDS011;7819;48.046;7.642;2023-02-28T01:30:06;7.13;;;3.27;;
2706;SDS011;7819;48.046;7.642;2023-02-28T01:32:31;3.93;;;3.27;;
2706;SDS011;7819;48.046;7.642;2023-02-28T01:34:56;3.50;;;3.20;;
2706;SDS011;7819;48.046;7.642;2023-02-28T01:37:21;3.43;;;3.13;;
2706;SDS011;7819;48.046;7.642;2023-02-28T01:39:47;6.70;;;3.67;;
2706;SDS011;7819;48.046;7.642;2023-02-28T01:42:12;3.57;;;3.20;;
2706;SDS011;7819;48.046;7.642;2023-02-28T01:47:21;3.40;;;2.63;;
2706;SDS011;7819;48.046;7.642;2023-02-28T01:49:47;4.30;;;3.57;;
2706;SDS011;7819;48.046;7.642;2023-02-28T01:52:13;3.40;;;3.10;;
2706;SDS011;7819;48.046;7.642;2023-02-28T01:54:42;3.07;;;2.27;;
2706;SDS011;7819;48.046;7.642;2023-02-28T01:57:09;3.70;;;2.60;;
2706;SDS011;7819;48.046;7.642;2023-02-28T01:59:43;3.33;;;3.03;;
2706;SDS011;7819;48.046;7.642;2023-02-28T02:02:11;2.93;;;2.73;;
2706;SDS011;7819;48.046;7.642;2023-02-28T02:04:38;4.40;;;3.10;;
2706;SDS011;7819;48.046;7.642;2023-02-28T02:07:04;5.40;;;3.13;;
2706;SDS011;7819;48.046;7.642;2023-02-28T02:09:29;4.73;;;3.27;;
2706;SDS011;7819;48.046;7.642;2023-02-28T02:11:54;3.23;;;2.93;;
2706;SDS011;7819;48.046;7.642;2023-02-28T02:16:56;4.47;;;2.50;;
2706;SDS011;7819;48.046;7.642;2023-02-28T02:34:49;4.47;;;4.07;;
2706;SDS011;7819;48.046;7.642;2023-02-28T02:37:24;3.63;;;3.27;;
2706;SDS011;7819;48.046;7.642;2023-02-28T02:39:56;3.10;;;2.70;;
2706;SDS011;7819;48.046;7.642;2023-02-28T02:43:07;2.80;;;2.50;;
2706;SDS011;7819;48.046;7.642;2023-02-28T02:45:17;3.13;;;2.87;;
2706;SDS011;7819;48.046;7.642;2023-02-28T02:47:43;2.80;;;2.60;;
2706;SDS011;7819;48.046;7.642;2023-02-28T02:50:12;3.30;;;3.03;;
2706;SDS011;7819;48.046;7.642;2023-02-28T02:52:39;2.77;;;2.57;;
2706;SDS011;7819;48.046;7.642;2023-02-28T02:55:06;3.60;;;3.30;;
2706;SDS011;7819;48.046;7.642;2023-02-28T02:57:33;3.00;;;2.70;;
2706;SDS011;7819;48.046;7.642;2023-02-28T03:00:00;3.30;;;3.10;;
2706;SDS011;7819;48.046;7.642;2023-02-28T03:02:27;4.87;;;3.50;;
2706;SDS011;7819;48.046;7.642;2023-02-28T03:04:59;3.43;;;3.07;;
2706;SDS011;7819;48.046;7.642;2023-02-28T03:07:26;3.67;;;3.37;;
2706;SDS011;7819;48.046;7.642;2023-02-28T03:09:52;3.17;;;2.87;;
2706;SDS011;7819;48.046;7.642;2023-02-28T03:12:18;3.40;;;2.53;;
2706;SDS011;7819;48.046;7.642;2023-02-28T03:17:24;2.97;;;2.73;;
2706;SDS011;7819;48.046;7.642;2023-02-28T03:20:01;3.07;;;2.50;;
2706;SDS011;7819;48.046;7.642;2023-02-28T03:27:42;3.17;;;2.90;;
2706;SDS011;7819;48.046;7.642;2023-02-28T03:30:16;4.23;;;3.17;;
2706;SDS011;7819;48.046;7.642;2023-02-28T03:32:50;3.30;;;3.00;;
2706;SDS011;7819;48.046;7.642;2023-02-28T03:35:19;4.80;;;2.73;;
2706;SDS011;7819;48.046;7.642;2023-02-28T03:37:46;2.90;;;2.70;;
2706;SDS011;7819;48.046;7.642;2023-02-28T03:40:14;3.87;;;3.53;;
2706;SDS011;7819;48.046;7.642;2023-02-28T03:42:41;2.80;;;2.40;;
2706;SDS011;7819;48.046;7.642;2023-02-28T03:45:11;4.37;;;3.13;;
2706;SDS011;7819;48.046;7.642;2023-02-28T03:50:07;4.57;;;3.47;;
2706;SDS011;7819;48.046;7.642;2023-02-28T03:52:34;3.50;;;3.20;;
2706;SDS011;7819;48.046;7.642;2023-02-28T03:55:02;4.60;;;3.47;;
2706;SDS011;7819;48.046;7.642;2023-02-28T04:00:07;2.83;;;2.53;;
2706;SDS011;7819;48.046;7.642;2023-02-28T04:02:34;4.90;;;2.93;;
2706;SDS011;7819;48.046;7.642;2023-02-28T04:05:00;3.50;;;3.20;;
2706;SDS011;7819;48.046;7.642;2023-02-28T04:07:25;3.60;;;3.30;;
2706;SDS011;7819;48.046;7.642;2023-02-28T04:09:53;3.40;;;3.10;;
2706;SDS011;7819;48.046;7.642;2023-02-28T04:12:18;5.50;;;3.90;;
2706;SDS011;7819;48.046;7.642;2023-02-28T04:14:44;4.27;;;2.83;;
2706;SDS011;7819;48.046;7.642;2023-02-28T04:17:09;3.70;;;3.40;;
2706;SDS011;7819;48.046;7.642;2023-02-28T04:19:34;3.40;;;3.00;;
2706;SDS011;7819;48.046;7.642;2023-02-28T04:21:59;3.10;;;2.33;;
2706;SDS011;7819;48.046;7.642;2023-02-28T04:24:25;3.47;;;2.97;;
2706;SDS011;7819;48.046;7.642;2023-02-28T04:26:52;3.60;;;3.17;;
2706;SDS011;7819;48.046;7.642;2023-02-28T04:29:19;4.00;;;3.00;;
2706;SDS011;7819;48.046;7.642;2023-02-28T04:31:44;3.20;;;2.90;;
2706;SDS011;7819;48.046;7.642;2023-02-28T04:34:09;2.83;;;2.60;;
2706;SDS011;7819;48.046;7.642;2023-02-28T04:36:35;3.83;;;3.17;;
2706;SDS011;7819;48.046;7.642;2023-02-28T04:39:00;3.23;;;2.90;;
2706;SDS011;7819;48.046;7.642;2023-02-28T04:41:25;3.60;;;2.67;;
2706;SDS011;7819;48.046;7.642;2023-02-28T04:43:51;5.33;;;3.20;;
2706;SDS011;7819;48.046;7.642;2023-02-28T04:46:16;3.87;;;3.57;;
2706;SDS011;7819;48.046;7.642;2023-02-28T04:48:43;3.73;;;3.40;;
2706;SDS011;7819;48.046;7.642;2023-02-28T04:51:09;3.60;;;3.30;;
2706;SDS011;7819;48.046;7.642;2023-02-28T04:53:35;3.60;;;3.30;;
2706;SDS011;7819;48.046;7.642;2023-02-28T04:56:01;3.20;;;2.90;;
2706;SDS011;7819;48.046;7.642;2023-02-28T04:58:26;3.97;;;3.67;;
2706;SDS011;7819;48.046;7.642;2023-02-28T05:00:53;6.93;;;3.50;;
2706;SDS011;7819;48.046;7.642;2023-02-28T05:03:18;4.20;;;3.10;;
2706;SDS011;7819;48.046;7.642;2023-02-28T05:05:45;3.57;;;3.27;;
2706;SDS011;7819;48.046;7.642;2023-02-28T05:08:10;4.37;;;3.97;;
2706;SDS011;7819;48.046;7.642;2023-02-28T05:10:36;4.27;;;3.30;;
2706;SDS011;7819;48.046;7.642;2023-02-28T05:13:01;3.47;;;3.17;;
2706;SDS011;7819;48.046;7.642;2023-02-28T05:15:26;4.73;;;3.90;;
2706;SDS011;7819;48.046;7.642;2023-02-28T05:17:51;3.57;;;3.27;;
2706;SDS011;7819;48.046;7.642;2023-02-28T05:20:16;4.30;;;3.50;;
2706;SDS011;7819;48.046;7.642;2023-02-28T05:22:42;4.00;;;3.40;;
2706;SDS011;7819;48.046;7.642;2023-02-28T05:25:10;5.63;;;3.73;;
2706;SDS011;7819;48.046;7.642;2023-02-28T05:27:36;4.00;;;3.23;;
2706;SDS011;7819;48.046;7.642;2023-02-28T05:30:01;3.90;;;3.60;;
2706;SDS011;7819;48.046;7.642;2023-02-28T05:32:28;4.40;;;3.37;;
2706;SDS011;7819;48.046;7.642;2023-02-28T05:34:53;6.53;;;3.60;;
2706;SDS011;7819;48.046;7.642;2023-02-28T05:37:18;5.07;;;4.50;;
2706;SDS011;7819;48.046;7.642;2023-02-28T05:39:43;4.50;;;4.10;;
2706;SDS011;7819;48.046;7.642;2023-02-28T05:42:09;7.47;;;3.10;;
2706;SDS011;7819;48.046;7.642;2023-02-28T05:44:34;4.07;;;3.17;;
2706;SDS011;7819;48.046;7.642;2023-02-28T05:46:59;5.30;;;3.87;;
2706;SDS011;7819;48.046;7.642;2023-02-28T05:49:24;4.07;;;3.67;;
2706;SDS011;7819;48.046;7.642;2023-02-28T05:51:50;4.70;;;3.77;;
2706;SDS011;7819;48.046;7.642;2023-02-28T05:54:15;3.87;;;3.37;;
2706;SDS011;7819;48.046;7.642;2023-02-28T05:56:40;4.87;;;3.43;;
2706;SDS011;7819;48.046;7.642;2023-02-28T05:59:08;4.63;;;3.87;;
2706;SDS011;7819;48.046;7.642;2023-02-28T06:01:37;5.00;;;3.80;;
2706;SDS011;7819;48.046;7.642;2023-02-28T06:04:04;4.13;;;3.70;;
2706;SDS011;7819;48.046;7.642;2023-02-28T06:06:30;5.33;;;4.13;;
2706;SDS011;7819;48.046;7.642;2023-02-28T06:08:55;6.07;;;4.20;;
2706;SDS011;7819;48.046;7.642;2023-02-28T06:11:21;5.33;;;3.93;;
2706;SDS011;7819;48.046;7.642;2023-02-28T06:13:46;3.53;;;3.23;;
2706;SDS011;7819;48.046;7.642;2023-02-28T06:16:11;5.30;;;4.80;;
2706;SDS011;7819;48.046;7.642;2023-02-28T06:18:36;6.10;;;5.03;;
2706;SDS011;7819;48.046;7.642;2023-02-28T06:21:02;6.63;;;4.23;;
2706;SDS011;7819;48.046;7.642;2023-02-28T06:23:27;3.70;;;3.40;;
2706;SDS011;7819;48.046;7.642;2023-02-28T06:25:52;6.60;;;4.70;;
2706;SDS011;7819;48.046;7.642;2023-02-28T06:28:18;4.57;;;4.13;;
2706;SDS011;7819;48.046;7.642;2023-02-28T06:30:43;6.00;;;3.90;;
2706;SDS011;7819;48.046;7.642;2023-02-28T06:33:08;4.53;;;4.13;;
2706;SDS011;7819;48.046;7.642;2023-02-28T06:35:33;8.37;;;4.23;;
2706;SDS011;7819;48.046;7.642;2023-02-28T06:37:59;5.10;;;4.60;;
2706;SDS011;7819;48.046;7.642;2023-02-28T06:40:24;4.83;;;4.33;;
2706;SDS011;7819;48.046;7.642;2023-02-28T06:42:49;4.33;;;3.63;;
2706;SDS011;7819;48.046;7.642;2023-02-28T06:45:14;5.40;;;5.00;;
2706;SDS011;7819;48.046;7.642;2023-02-28T06:47:40;5.47;;;4.97;;
2706;SDS011;7819;48.046;7.642;2023-02-28T06:50:06;4.83;;;4.20;;
2706;SDS011;7819;48.046;7.642;2023-02-28T06:52:32;6.13;;;4.80;;
2706;SDS011;7819;48.046;7.642;2023-02-28T06:54:57;5.03;;;4.63;;
2706;SDS011;7819;48.046;7.642;2023-02-28T06:57:29;5.30;;;4.80;;
2706;SDS011;7819;48.046;7.642;2023-02-28T06:59:56;5.90;;;4.70;;
2706;SDS011;7819;48.046;7.642;2023-02-28T07:02:21;5.07;;;4.67;;
2706;SDS011;7819;48.046;7.642;2023-02-28T07:04:46;5.20;;;4.70;;
2706;SDS011;7819;48.046;7.642;2023-02-28T07:07:11;6.30;;;5.00;;
2706;SDS011;7819;48.046;7.642;2023-02-28T07:09:37;4.97;;;4.40;;
2706;SDS011;7819;48.046;7.642;2023-02-28T07:12:02;5.30;;;4.77;;
2706;SDS011;7819;48.046;7.642;2023-02-28T07:14:27;6.40;;;5.10;;
2706;SDS011;7819;48.046;7.642;2023-02-28T07:16:52;5.30;;;4.80;;
2706;SDS011;7819;48.046;7.642;2023-02-28T07:19:17;6.17;;;4.70;;
2706;SDS011;7819;48.046;7.642;2023-02-28T07:21:43;4.60;;;4.20;;
2706;SDS011;7819;48.046;7.642;2023-02-28T07:24:08;4.80;;;4.30;;
2706;SDS011;7819;48.046;7.642;2023-02-28T07:26:33;5.77;;;4.33;;
2706;SDS011;7819;48.046;7.642;2023-02-28T07:29:01;5.17;;;4.73;;
2706;SDS011;7819;48.046;7.642;2023-02-28T07:31:27;5.20;;;4.70;;
2706;SDS011;7819;48.046;7.642;2023-02-28T07:33:52;5.00;;;4.60;;
2706;SDS011;7819;48.046;7.642;2023-02-28T07:36:18;6.03;;;4.37;;
2706;SDS011;7819;48.046;7.642;2023-02-28T07:38:44;7.63;;;5.50;;
2706;SDS011;7819;48.046;7.642;2023-02-28T07:41:09;7.47;;;4.60;;
2706;SDS011;7819;48.046;7.642;2023-02-28T07:43:35;6.23;;;5.63;;
2706;SDS011;7819;48.046;7.642;2023-02-28T07:46:04;4.97;;;4.57;;
2706;SDS011;7819;48.046;7.642;2023-02-28T07:48:30;5.43;;;4.93;;
2706;SDS011;7819;48.046;7.642;2023-02-28T07:50:56;6.37;;;4.70;;
2706;SDS011;7819;48.046;7.642;2023-02-28T07:53:21;6.40;;;5.57;;
2706;SDS011;7819;48.046;7.642;2023-02-28T07:55:47;4.90;;;4.50;;
2706;SDS011;7819;48.046;7.642;2023-02-28T07:58:12;5.57;;;4.77;;
2706;SDS011;7819;48.046;7.642;2023-02-28T08:00:37;6.07;;;5.50;;
2706;SDS011;7819;48.046;7.642;2023-02-28T08:03:03;6.47;;;5.17;;
2706;SDS011;7819;48.046;7.642;2023-02-28T08:05:28;6.57;;;5.07;;
2706;SDS011;7819;48.046;7.642;2023-02-28T08:07:54;5.30;;;4.80;;
2706;SDS011;7819;48.046;7.642;2023-02-28T08:10:20;5.70;;;5.10;;
2706;SDS011;7819;48.046;7.642;2023-02-28T08:12:45;6.10;;;5.23;;
2706;SDS011;7819;48.046;7.642;2023-02-28T08:15:10;5.87;;;5.27;;
2706;SDS011;7819;48.046;7.642;2023-02-28T08:17:35;5.90;;;5.10;;
2706;SDS011;7819;48.046;7.642;2023-02-28T08:20:00;7.30;;;5.47;;
2706;SDS011;7819;48.046;7.642;2023-02-28T08:22:26;5.97;;;5.37;;
2706;SDS011;7819;48.046;7.642;2023-02-28T08:24:51;7.77;;;5.33;;
2706;SDS011;7819;48.046;7.642;2023-02-28T08:27:16;5.43;;;4.93;;
2706;SDS011;7819;48.046;7.642;2023-02-28T08:29:42;5.63;;;5.00;;
2706;SDS011;7819;48.046;7.642;2023-02-28T08:32:07;6.73;;;4.77;;
2706;SDS011;7819;48.046;7.642;2023-02-28T08:34:32;5.47;;;4.97;;
2706;SDS011;7819;48.046;7.642;2023-02-28T08:36:57;5.10;;;4.40;;
2706;SDS011;7819;48.046;7.642;2023-02-28T08:39:23;5.13;;;4.30;;
2706;SDS011;7819;48.046;7.642;2023-02-28T08:41:48;6.70;;;5.10;;
2706;SDS011;7819;48.046;7.642;2023-02-28T08:44:13;4.90;;;4.50;;
2706;SDS011;7819;48.046;7.642;2023-02-28T08:46:38;4.90;;;4.50;;
2706;SDS011;7819;48.046;7.642;2023-02-28T08:49:04;5.00;;;4.40;;
2706;SDS011;7819;48.046;7.642;2023-02-28T08:51:29;5.43;;;4.93;;
2706;SDS011;7819;48.046;7.642;2023-02-28T08:53:55;5.87;;;4.17;;
2706;SDS011;7819;48.046;7.642;2023-02-28T08:56:21;4.90;;;4.33;;
2706;SDS011;7819;48.046;7.642;2023-02-28T08:58:47;5.10;;;4.47;;
2706;SDS011;7819;48.046;7.642;2023-02-28T09:01:13;7.00;;;4.87;;
2706;SDS011;7819;48.046;7.642;2023-02-28T09:03:39;5.57;;;5.07;;
2706;SDS011;7819;48.046;7.642;2023-02-28T09:06:05;5.33;;;4.40;;
2706;SDS011;7819;48.046;7.642;2023-02-28T09:08:31;5.80;;;4.97;;
2706;SDS011;7819;48.046;7.642;2023-02-28T09:10:56;5.43;;;4.73;;
2706;SDS011;7819;48.046;7.642;2023-02-28T09:13:23;5.90;;;4.57;;
2706;SDS011;7819;48.046;7.642;2023-02-28T09:15:48;5.47;;;4.97;;
2706;SDS011;7819;48.046;7.642;2023-02-28T09:18:14;6.00;;;5.40;;
2706;SDS011;7819;48.046;7.642;2023-02-28T09:20:40;5.20;;;4.70;;
2706;SDS011;7819;48.046;7.642;2023-02-28T09:23:09;6.73;;;5.23;;
2706;SDS011;7819;48.046;7.642;2023-02-28T09:25:35;7.47;;;5.00;;
2706;SDS011;7819;48.046;7.642;2023-02-28T09:28:00;7.17;;;5.00;;
2706;SDS011;7819;48.046;7.642;2023-02-28T09:30:27;5.30;;;4.80;;
2706;SDS011;7819;48.046;7.642;2023-02-28T09:32:52;5.80;;;5.30;;
2706;SDS011;7819;48.046;7.642;2023-02-28T09:35:19;9.70;;;4.90;;
2706;SDS011;7819;48.046;7.642;2023-02-28T09:37:46;6.43;;;5.77;;
2706;SDS011;7819;48.046;7.642;2023-02-28T09:40:11;5.80;;;5.20;;
2706;SDS011;7819;48.046;7.642;2023-02-28T09:42:37;13.67;;;8.17;;
2706;SDS011;7819;48.046;7.642;2023-02-28T09:45:05;5.80;;;5.30;;
2706;SDS011;7819;48.046;7.642;2023-02-28T09:49:58;5.50;;;5.00;;
2706;SDS011;7819;48.046;7.642;2023-02-28T09:52:27;6.40;;;5.13;;
2706;SDS011;7819;48.046;7.642;2023-02-28T09:54:53;5.97;;;5.37;;
2706;SDS011;7819;48.046;7.642;2023-02-28T09:57:32;6.30;;;5.67;;
2706;SDS011;7819;48.046;7.642;2023-02-28T10:00:06;7.07;;;5.97;;
2706;SDS011;7819;48.046;7.642;2023-02-28T10:05:08;6.40;;;4.97;;
2706;SDS011;7819;48.046;7.642;2023-02-28T10:10:26;6.37;;;5.40;;
2706;SDS011;7819;48.046;7.642;2023-02-28T10:12:53;6.50;;;4.93;;
2706;SDS011;7819;48.046;7.642;2023-02-28T10:15:19;7.63;;;4.63;;
2706;SDS011;7819;48.046;7.642;2023-02-28T10:17:47;5.90;;;5.07;;
2706;SDS011;7819;48.046;7.642;2023-02-28T10:20:14;5.57;;;4.97;;
2706;SDS011;7819;48.046;7.642;2023-02-28T10:25:36;7.43;;;6.03;;
2706;SDS011;7819;48.046;7.642;2023-02-28T10:28:09;8.80;;;6.00;;
2706;SDS011;7819;48.046;7.642;2023-02-28T10:30:34;6.87;;;6.17;;
2706;SDS011;7819;48.046;7.642;2023-02-28T10:33:00;5.40;;;5.00;;
2706;SDS011;7819;48.046;7.642;2023-02-28T10:35:25;5.90;;;4.93;;
2706;SDS011;7819;48.046;7.642;2023-02-28T10:37:53;6.33;;;5.40;;
2706;SDS011;7819;48.046;7.642;2023-02-28T10:45:21;7.90;;;5.47;;
2706;SDS011;7819;48.046;7.642;2023-02-28T10:47:49;8.17;;;7.47;;
2706;SDS011;7819;48.046;7.642;2023-02-28T10:50:29;8.20;;;5.80;;
2706;SDS011;7819;48.046;7.642;2023-02-28T10:52:54;6.57;;;5.93;;
2706;SDS011;7819;48.046;7.642;2023-02-28T10:55:21;9.60;;;6.43;;
2706;SDS011;7819;48.046;7.642;2023-02-28T10:57:47;6.80;;;5.20;;
2706;SDS011;7819;48.046;7.642;2023-02-28T11:00:16;6.90;;;5.90;;
2706;SDS011;7819;48.046;7.642;2023-02-28T11:02:42;8.53;;;6.33;;
2706;SDS011;7819;48.046;7.642;2023-02-28T11:05:24;7.57;;;6.80;;
2706;SDS011;7819;48.046;7.642;2023-02-28T11:07:51;9.80;;;6.10;;
2706;SDS011;7819;48.046;7.642;2023-02-28T11:10:18;7.57;;;5.90;;
2706;SDS011;7819;48.046;7.642;2023-02-28T11:12:44;5.87;;;5.20;;
2706;SDS011;7819;48.046;7.642;2023-02-28T11:15:21;7.43;;;6.03;;
2706;SDS011;7819;48.046;7.642;2023-02-28T11:17:54;5.97;;;5.47;;
2706;SDS011;7819;48.046;7.642;2023-02-28T11:20:21;7.10;;;5.80;;
2706;SDS011;7819;48.046;7.642;2023-02-28T11:22:48;6.57;;;4.97;;
2706;SDS011;7819;48.046;7.642;2023-02-28T11:25:25;7.03;;;5.43;;
2706;SDS011;7819;48.046;7.642;2023-02-28T11:27:52;7.40;;;5.07;;
2706;SDS011;7819;48.046;7.642;2023-02-28T11:32:58;6.80;;;5.47;;
2706;SDS011;7819;48.046;7.642;2023-02-28T11:35:32;10.30;;;5.60;;
2706;SDS011;7819;48.046;7.642;2023-02-28T11:37:59;7.50;;;5.67;;
2706;SDS011;7819;48.046;7.642;2023-02-28T11:40:30;7.07;;;6.13;;
2706;SDS011;7819;48.046;7.642;2023-02-28T11:45:45;5.80;;;4.90;;
2706;SDS011;7819;48.046;7.642;2023-02-28T11:48:18;7.70;;;5.90;;
2706;SDS011;7819;48.046;7.642;2023-02-28T11:56:06;8.00;;;6.07;;
2706;SDS011;7819;48.046;7.642;2023-02-28T11:58:50;6.40;;;5.50;;
2706;SDS011;7819;48.046;7.642;2023-02-28T12:06:13;7.57;;;6.83;;
2706;SDS011;7819;48.046;7.642;2023-02-28T12:11:06;11.85;;;6.43;;
2706;SDS011;7819;48.046;7.642;2023-02-28T12:13:37;6.60;;;6.00;;
2706;SDS011;7819;48.046;7.642;2023-02-28T12:16:13;9.00;;;6.47;;
2706;SDS011;7819;48.046;7.642;2023-02-28T12:26:08;10.20;;;6.53;;
2706;SDS011;7819;48.046;7.642;2023-02-28T12:28:46;7.80;;;6.27;;
2706;SDS011;7819;48.046;7.642;2023-02-28T12:31:16;6.10;;;5.50;;
2706;SDS011;7819;48.046;7.642;2023-02-28T12:33:44;6.10;;;5.50;;
2706;SDS011;7819;48.046;7.642;2023-02-28T12:36:10;8.80;;;5.50;;
2706;SDS011;7819;48.046;7.642;2023-02-28T12:41:06;5.70;;;5.10;;
2706;SDS011;7819;48.046;7.642;2023-02-28T12:43:40;6.10;;;5.27;;
2706;SDS011;7819;48.046;7.642;2023-02-28T12:46:08;6.20;;;5.60;;
2706;SDS011;7819;48.046;7.642;2023-02-28T12:48:42;7.60;;;6.07;;
2706;SDS011;7819;48.046;7.642;2023-02-28T12:51:08;7.40;;;6.60;;
2706;SDS011;7819;48.046;7.642;2023-02-28T12:53:44;8.10;;;6.67;;
2706;SDS011;7819;48.046;7.642;2023-02-28T12:58:41;7.30;;;6.57;;
2706;SDS011;7819;48.046;7.642;2023-02-28T13:08:59;7.27;;;6.50;;
2706;SDS011;7819;48.046;7.642;2023-02-28T13:13:56;7.03;;;6.37;;
2706;SDS011;7819;48.046;7.642;2023-02-28T13:16:21;9.73;;;6.63;;
2706;SDS011;7819;48.046;7.642;2023-02-28T13:18:47;7.70;;;6.43;;
2706;SDS011;7819;48.046;7.642;2023-02-28T13:21:29;6.77;;;6.17;;
2706;SDS011;7819;48.046;7.642;2023-02-28T13:26:22;14.53;;;6.73;;
2706;SDS011;7819;48.046;7.642;2023-02-28T13:31:15;13.70;;;8.07;;
2706;SDS011;7819;48.046;7.642;2023-02-28T13:38:45;8.90;;;6.17;;
2706;SDS011;7819;48.046;7.642;2023-02-28T13:46:30;8.40;;;6.50;;
2706;SDS011;7819;48.046;7.642;2023-02-28T13:48:55;10.13;;;8.17;;
2706;SDS011;7819;48.046;7.642;2023-02-28T13:52:06;8.43;;;6.93;;
2706;SDS011;7819;48.046;7.642;2023-02-28T13:59:34;7.17;;;6.43;;
2706;SDS011;7819;48.046;7.642;2023-02-28T14:02:11;9.07;;;6.30;;
2706;SDS011;7819;48.046;7.642;2023-02-28T14:04:58;7.50;;;6.73;;
2706;SDS011;7819;48.046;7.642;2023-02-28T14:07:26;8.00;;;7.03;;
2706;SDS011;7819;48.046;7.642;2023-02-28T14:09:55;7.00;;;6.30;;
2706;SDS011;7819;48.046;7.642;2023-02-28T14:17:51;9.10;;;6.73;;
2706;SDS011;7819;48.046;7.642;2023-02-28T14:20:16;7.83;;;6.50;;
2706;SDS011;7819;48.046;7.642;2023-02-28T14:27:55;8.23;;;7.40;;
2706;SDS011;7819;48.046;7.642;2023-02-28T14:30:29;7.33;;;6.10;;
2706;SDS011;7819;48.046;7.642;2023-02-28T14:35:39;8.70;;;7.13;;
2706;SDS011;7819;48.046;7.642;2023-02-28T14:38:13;9.37;;;7.10;;
2706;SDS011;7819;48.046;7.642;2023-02-28T14:40:39;9.03;;;7.07;;
2706;SDS011;7819;48.046;7.642;2023-02-28T14:43:06;11.43;;;7.93;;
2706;SDS011;7819;48.046;7.642;2023-02-28T14:45:32;8.43;;;7.53;;
2706;SDS011;7819;48.046;7.642;2023-02-28T14:47:58;9.83;;;8.10;;
2706;SDS011;7819;48.046;7.642;2023-02-28T14:50:26;8.87;;;7.43;;
2706;SDS011;7819;48.046;7.642;2023-02-28T14:52:54;9.20;;;7.70;;
2706;SDS011;7819;48.046;7.642;2023-02-28T14:55:21;8.50;;;7.60;;
2706;SDS011;7819;48.046;7.642;2023-02-28T14:57:55;8.00;;;6.60;;
2706;SDS011;7819;48.046;7.642;2023-02-28T15:00:25;7.67;;;6.87;;
2706;SDS011;7819;48.046;7.642;2023-02-28T15:02:51;7.73;;;6.90;;
2706;SDS011;7819;48.046;7.642;2023-02-28T15:07:46;10.97;;;7.43;;
2706;SDS011;7819;48.046;7.642;2023-02-28T15:10:16;7.73;;;6.80;;
2706;SDS011;7819;48.046;7.642;2023-02-28T15:12:44;11.53;;;7.50;;
2706;SDS011;7819;48.046;7.642;2023-02-28T15:15:17;10.20;;;7.20;;
2706;SDS011;7819;48.046;7.642;2023-02-28T15:17:46;10.17;;;8.40;;
2706;SDS011;7819;48.046;7.642;2023-02-28T15:20:13;9.30;;;7.40;;
2706;SDS011;7819;48.046;7.642;2023-02-28T15:22:39;8.23;;;6.93;;
2706;SDS011;7819;48.046;7.642;2023-02-28T15:25:05;7.17;;;6.47;;
2706;SDS011;7819;48.046;7.642;2023-02-28T15:27:31;9.93;;;7.30;;
2706;SDS011;7819;48.046;7.642;2023-02-28T15:29:59;8.20;;;7.40;;
2706;SDS011;7819;48.046;7.642;2023-02-28T15:32:26;9.30;;;7.53;;
2706;SDS011;7819;48.046;7.642;2023-02-28T15:34:52;10.17;;;7.37;;
2706;SDS011;7819;48.046;7.642;2023-02-28T15:37:28;8.77;;;7.90;;
2706;SDS011;7819;48.046;7.642;2023-02-28T15:39:55;11.03;;;7.60;;
2706;SDS011;7819;48.046;7.642;2023-02-28T15:42:22;8.87;;;7.57;;
2706;SDS011;7819;48.046;7.642;2023-02-28T15:44:47;9.40;;;7.60;;
2706;SDS011;7819;48.046;7.642;2023-02-28T15:49:45;13.30;;;9.30;;
2706;SDS011;7819;48.046;7.642;2023-02-28T15:52:13;8.90;;;7.67;;
2706;SDS011;7819;48.046;7.642;2023-02-28T15:54:38;8.03;;;7.07;;
2706;SDS011;7819;48.046;7.642;2023-02-28T15:57:04;8.47;;;7.00;;
2706;SDS011;7819;48.046;7.642;2023-02-28T15:59:33;11.13;;;7.20;;
2706;SDS011;7819;48.046;7.642;2023-02-28T16:02:18;8.63;;;7.67;;
2706;SDS011;7819;48.046;7.642;2023-02-28T16:04:54;10.30;;;8.67;;
2706;SDS011;7819;48.046;7.642;2023-02-28T16:07:20;10.73;;;8.63;;
2706;SDS011;7819;48.046;7.642;2023-02-28T16:09:45;8.03;;;7.23;;
2706;SDS011;7819;48.046;7.642;2023-02-28T16:12:12;9.47;;;7.93;;
2706;SDS011;7819;48.046;7.642;2023-02-28T16:14:38;8.67;;;7.80;;
2706;SDS011;7819;48.046;7.642;2023-02-28T16:17:05;7.67;;;6.93;;
2706;SDS011;7819;48.046;7.642;2023-02-28T16:19:31;9.90;;;8.90;;
2706;SDS011;7819;48.046;7.642;2023-02-28T16:21:56;9.70;;;7.80;;
2706;SDS011;7819;48.046;7.642;2023-02-28T16:24:22;9.33;;;7.80;;
2706;SDS011;7819;48.046;7.642;2023-02-28T16:26:48;8.23;;;7.50;;
2706;SDS011;7819;48.046;7.642;2023-02-28T16:29:14;10.77;;;8.47;;
2706;SDS011;7819;48.046;7.642;2023-02-28T16:31:42;10.70;;;9.07;;
2706;SDS011;7819;48.046;7.642;2023-02-28T16:34:07;11.27;;;8.97;;
2706;SDS011;7819;48.046;7.642;2023-02-28T16:36:32;13.37;;;10.80;;
2706;SDS011;7819;48.046;7.642;2023-02-28T16:38:57;15.17;;;11.30;;
2706;SDS011;7819;48.046;7.642;2023-02-28T16:41:26;56.67;;;42.20;;
2706;SDS011;7819;48.046;7.642;2023-02-28T16:43:54;29.50;;;19.40;;
2706;SDS011;7819;48.046;7.642;2023-02-28T16:46:23;34.03;;;21.30;;
2706;SDS011;7819;48.046;7.642;2023-02-28T16:48:49;13.93;;;10.30;;
2706;SDS011;7819;48.046;7.642;2023-02-28T16:51:16;16.30;;;14.57;;
2706;SDS011;7819;48.046;7.642;2023-02-28T16:53:42;15.60;;;11.50;;
2706;SDS011;7819;48.046;7.642;2023-02-28T16:56:13;22.20;;;17.40;;
2706;SDS011;7819;48.046;7.642;2023-02-28T16:58:39;33.83;;;30.20;;
2706;SDS011;7819;48.046;7.642;2023-02-28T17:01:04;16.17;;;12.13;;
2706;SDS011;7819;48.046;7.642;2023-02-28T17:03:29;65.27;;;45.73;;
2706;SDS011;7819;48.046;7.642;2023-02-28T17:05:54;30.00;;;24.03;;
2706;SDS011;7819;48.046;7.642;2023-02-28T17:08:20;11.47;;;8.97;;
2706;SDS011;7819;48.046;7.642;2023-02-28T17:10:45;11.40;;;9.00;;
2706;SDS011;7819;48.046;7.642;2023-02-28T17:13:10;10.90;;;9.20;;
2706;SDS011;7819;48.046;7.642;2023-02-28T17:15:35;10.97;;;7.97;;
2706;SDS011;7819;48.046;7.642;2023-02-28T17:18:01;11.23;;;9.17;;
2706;SDS011;7819;48.046;7.642;2023-02-28T17:20:27;10.70;;;8.13;;